Time;durP1;ratioP1;P1;durP2;ratioP2;P2;SDS_P1;SDS_P2;PMS_P1;PMS_P2;Temp;Humidity;BMP_temperature;BMP_pressure;BME280_temperature;BME280_humidity;BME280_pressure;Samples;Min_cycle;Max_cycle;Signal;HPM_P1;HPM_P2
2022/02/23 00:00:06;;;;;;;24.00;14.63;;;;;;;4.66;68.84;95328.53;5026558;28;20034;-75
2022/02/23 00:02:32;;;;;;;23.13;14.35;;;;;;;4.64;68.62;95328.63;5026411;28;20025;-76
2022/02/23 00:04:57;;;;;;;23.13;13.93;;;;;;;4.76;68.10;95334.63;5026412;28;20021;-76
2022/02/23 00:07:23;;;;;;;30.50;14.25;;;;;;;4.74;68.61;95336.59;4992361;28;20025;-75
2022/02/23 00:09:48;;;;;;;22.42;13.07;;;;;;;4.69;68.54;95334.38;5024982;28;20021;-76
2022/02/23 00:12:14;;;;;;;28.45;13.90;;;;;;;4.70;68.24;95329.91;5024714;28;20025;-75
2022/02/23 00:14:39;;;;;;;28.63;14.68;;;;;;;4.68;69.04;95326.53;5026213;28;20033;-75
2022/02/23 00:17:05;;;;;;;23.50;14.50;;;;;;;4.68;68.68;95332.69;5024911;28;20033;-75
2022/02/23 00:19:30;;;;;;;26.73;14.23;;;;;;;4.65;69.37;95326.81;5024525;28;20032;-76
2022/02/23 00:21:56;;;;;;;22.85;13.45;;;;;;;4.63;68.79;95329.63;5024829;28;20029;-76
2022/02/23 00:24:21;;;;;;;25.98;13.95;;;;;;;4.76;67.70;95329.31;5008371;28;20027;-75
2022/02/23 00:26:47;;;;;;;27.02;14.35;;;;;;;4.70;68.19;95333.41;5026047;28;20021;-75
2022/02/23 00:29:12;;;;;;;23.33;14.30;;;;;;;4.74;68.48;95325.16;5025937;28;20046;-76
2022/02/23 00:31:38;;;;;;;24.65;14.50;;;;;;;4.75;68.29;95332.13;5024374;28;20029;-76
2022/02/23 00:34:03;;;;;;;32.58;16.30;;;;;;;4.74;68.43;95335.78;5026047;28;20500;-76
2022/02/23 00:36:28;;;;;;;28.45;15.88;;;;;;;4.76;67.48;95329.31;5024330;28;20029;-76
2022/02/23 00:38:54;;;;;;;28.45;15.50;;;;;;;4.70;67.92;95328.09;5026127;28;20033;-75
2022/02/23 00:41:19;;;;;;;31.60;15.70;;;;;;;4.76;67.94;95328.47;5026002;28;20044;-75
2022/02/23 00:43:45;;;;;;;33.15;15.50;;;;;;;4.73;67.91;95328.75;5024214;28;20026;-75
2022/02/23 00:46:11;;;;;;;30.30;16.08;;;;;;;4.78;67.85;95321.22;5025848;28;20037;-76
2022/02/23 00:48:36;;;;;;;31.83;16.17;;;;;;;4.80;68.24;95324.56;5023995;28;20037;-75
2022/02/23 00:51:01;;;;;;;31.50;17.10;;;;;;;4.87;67.77;95327.50;5025784;28;20080;-75
2022/02/23 00:53:27;;;;;;;28.67;15.77;;;;;;;4.77;68.49;95336.31;5025262;28;20025;-75
2022/02/23 00:55:52;;;;;;;24.75;15.50;;;;;;;4.77;68.81;95335.50;5007909;28;20025;-76
2022/02/23 00:58:18;;;;;;;26.65;15.32;;;;;;;4.86;67.95;95331.13;5025579;28;20022;-76
2022/02/23 01:00:43;;;;;;;25.85;16.02;;;;;;;4.86;67.58;95339.09;5025138;28;20385;-76
2022/02/23 01:03:08;;;;;;;23.73;15.52;;;;;;;4.87;68.26;95328.31;5024252;28;20021;-76
2022/02/23 01:05:35;;;;;;;22.90;15.00;;;;;;;4.92;67.66;95336.69;5023560;28;20030;-75
2022/02/23 01:08:01;;;;;;;25.63;15.85;;;;;;;4.97;67.70;95336.25;5025495;28;20028;-75
2022/02/23 01:10:26;;;;;;;26.08;16.20;;;;;;;4.90;67.72;95335.19;5025276;28;20515;-76
2022/02/23 01:12:52;;;;;;;23.52;15.40;;;;;;;4.80;67.62;95340.50;5025141;28;20029;-75
2022/02/23 01:15:17;;;;;;;25.17;15.20;;;;;;;4.78;68.10;95339.81;5023951;28;20079;-74
2022/02/23 01:17:43;;;;;;;27.60;17.05;;;;;;;4.78;67.65;95330.03;5023764;28;20025;-75
2022/02/23 01:20:09;;;;;;;28.92;15.85;;;;;;;4.78;67.92;95342.47;5025134;28;20018;-75
2022/02/23 01:22:34;;;;;;;28.75;15.38;;;;;;;4.81;67.36;95331.53;5024796;28;20025;-74
2022/02/23 01:25:00;;;;;;;23.92;14.65;;;;;;;4.81;67.52;95331.53;5025142;28;20495;-75
2022/02/23 01:27:25;;;;;;;27.67;15.63;;;;;;;4.71;67.12;95334.22;5023651;28;20021;-76
2022/02/23 01:29:51;;;;;;;23.83;14.50;;;;;;;4.75;67.19;95337.44;5023458;28;20040;-76
2022/02/23 01:32:16;;;;;;;26.42;16.55;;;;;;;4.69;66.89;95341.53;5024839;28;20029;-75
2022/02/23 01:34:42;;;;;;;26.48;15.45;;;;;;;4.67;67.54;95343.47;5025514;28;20021;-75
2022/02/23 01:37:07;;;;;;;20.75;13.55;;;;;;;4.64;67.21;95341.91;5024890;28;20044;-77
2022/02/23 01:39:33;;;;;;;23.35;15.02;;;;;;;4.55;67.49;95333.00;5007177;28;20037;-76
2022/02/23 01:41:58;;;;;;;27.42;14.50;;;;;;;4.66;67.40;95331.19;5023715;28;20026;-74
2022/02/23 01:44:23;;;;;;;20.10;13.82;;;;;;;4.58;67.59;95334.53;5024869;28;20450;-77
2022/02/23 01:46:49;;;;;;;21.30;13.60;;;;;;;4.58;67.45;95338.03;5025038;28;20496;-75
2022/02/23 01:49:14;;;;;;;21.38;12.82;;;;;;;4.64;67.46;95351.72;5023390;28;20036;-76
2022/02/23 01:51:40;;;;;;;20.92;13.80;;;;;;;4.58;67.37;95348.66;5024566;28;20028;-77
2022/02/23 01:54:05;;;;;;;20.10;13.30;;;;;;;4.64;67.74;95346.41;5024705;28;20029;-75
2022/02/23 01:56:30;;;;;;;24.48;14.65;;;;;;;4.63;68.03;95356.19;5023722;28;20025;-77
2022/02/23 01:58:56;;;;;;;20.48;13.80;;;;;;;4.68;67.73;95348.63;5023251;28;20040;-76
2022/02/23 02:01:21;;;;;;;21.77;14.70;;;;;;;4.70;67.53;95349.34;5023474;28;20038;-75
2022/02/23 02:03:47;;;;;;;21.73;14.85;;;;;;;4.68;68.22;95353.97;5023377;28;20021;-75
2022/02/23 02:06:12;;;;;;;19.40;13.80;;;;;;;4.75;68.04;95354.22;5024657;28;20027;-77
2022/02/23 02:08:38;;;;;;;21.83;14.25;;;;;;;4.73;67.19;95350.88;5024825;28;20072;-75
2022/02/23 02:11:03;;;;;;;21.98;13.63;;;;;;;4.78;66.67;95353.94;5024417;28;20033;-77
2022/02/23 02:13:28;;;;;;;25.80;15.73;;;;;;;4.73;67.33;95356.19;5025192;28;20032;-76
2022/02/23 02:15:54;;;;;;;23.27;14.98;;;;;;;4.72;67.58;95349.19;5024662;28;20084;-75
2022/02/23 02:18:19;;;;;;;25.20;14.98;;;;;;;4.72;67.60;95361.63;5026947;28;20026;-75
2022/02/23 02:20:45;;;;;;;22.27;14.77;;;;;;;4.71;67.47;95352.81;5028433;28;20017;-76
2022/02/23 02:23:10;;;;;;;20.60;13.98;;;;;;;4.69;67.22;95363.59;5026940;28;20026;-75
2022/02/23 02:25:36;;;;;;;21.05;13.82;;;;;;;4.71;66.87;95368.75;5027408;28;20036;-76
2022/02/23 02:28:04;;;;;;;24.30;14.57;;;;;;;4.70;67.05;95372.41;5027963;28;20088;-76
2022/02/23 02:30:29;;;;;;;24.92;14.40;;;;;;;4.70;67.50;95383.03;5028354;28;20045;-76
2022/02/23 02:32:55;;;;;;;21.42;13.80;;;;;;;4.60;67.74;95385.69;5027943;28;20029;-75
2022/02/23 02:35:20;;;;;;;18.15;13.43;;;;;;;4.66;67.43;95385.13;5028357;28;20022;-76
2022/02/23 02:37:46;;;;;;;18.27;13.18;;;;;;;4.58;67.50;95385.84;5027954;28;20052;-75
2022/02/23 02:40:11;;;;;;;19.42;14.07;;;;;;;4.48;68.49;95395.66;5026715;28;20029;-77
2022/02/23 02:42:37;;;;;;;19.42;13.50;;;;;;;4.48;68.38;95385.03;5026861;28;20029;-75
2022/02/23 02:45:02;;;;;;;21.10;12.57;;;;;;;4.47;68.38;95383.31;5027552;28;20033;-75
2022/02/23 02:47:28;;;;;;;19.33;12.57;;;;;;;4.56;68.52;95392.28;5028274;28;20508;-76
2022/02/23 02:49:53;;;;;;;17.90;12.32;;;;;;;4.53;67.54;95393.38;5027662;28;20025;-77
2022/02/23 02:52:19;;;;;;;18.52;13.10;;;;;;;4.62;67.98;95396.19;5026194;28;20033;-75
2022/02/23 02:54:44;;;;;;;18.75;12.60;;;;;;;4.62;67.65;95397.03;5010185;28;20026;-74
2022/02/23 02:57:10;;;;;;;21.20;13.75;;;;;;;4.64;68.01;95396.91;5009998;28;20524;-76
2022/02/23 02:59:35;;;;;;;17.05;11.15;;;;;;;4.60;68.10;95392.81;5026476;28;20032;-76
2022/02/23 03:02:01;;;;;;;19.58;12.30;;;;;;;4.64;67.44;95386.25;5026377;28;20075;-76
2022/02/23 03:04:26;;;;;;;17.92;11.98;;;;;;;4.65;67.58;95387.94;5027985;28;20026;-77
2022/02/23 03:06:52;;;;;;;18.42;12.30;;;;;;;4.69;66.88;95395.47;5009819;28;20060;-77
2022/02/23 03:09:17;;;;;;;21.40;13.48;;;;;;;4.65;67.55;95395.91;5026195;28;20025;-77
2022/02/23 03:11:43;;;;;;;20.98;12.73;;;;;;;4.69;68.03;95402.63;5025973;28;20806;-74
2022/02/23 03:14:08;;;;;;;19.08;12.90;;;;;;;4.71;66.97;95405.97;5027353;28;20032;-76
2022/02/23 03:16:33;;;;;;;19.67;12.68;;;;;;;4.64;67.35;95408.34;5009601;28;20025;-75
2022/02/23 03:18:59;;;;;;;18.95;12.15;;;;;;;4.67;67.46;95409.88;5026337;28;20021;-75
2022/02/23 03:21:24;;;;;;;16.02;12.52;;;;;;;4.55;67.90;95412.69;5027207;28;20040;-76
2022/02/23 03:23:50;;;;;;;17.02;12.65;;;;;;;4.59;68.27;95418.56;5009440;28;20475;-75
2022/02/23 03:26:15;;;;;;;17.30;11.88;;;;;;;4.67;66.95;95410.75;5027202;28;20033;-75
2022/02/23 03:28:41;;;;;;;16.67;11.88;;;;;;;4.50;67.50;95416.75;5027034;28;20045;-74
2022/02/23 03:31:07;;;;;;;19.30;12.73;;;;;;;4.61;67.40;95421.91;5025710;28;20045;-75
2022/02/23 03:33:33;;;;;;;18.65;11.90;;;;;;;4.49;68.08;95420.38;5025858;28;20030;-75
2022/02/23 03:35:59;;;;;;;17.45;12.43;;;;;;;4.39;68.34;95418.56;5027355;28;20108;-75
2022/02/23 03:38:24;;;;;;;18.08;12.77;;;;;;;4.53;67.74;95430.56;5025379;28;20033;-77
2022/02/23 03:40:50;;;;;;;17.80;12.18;;;;;;;4.52;67.74;95428.91;5025737;28;20083;-75
2022/02/23 03:43:17;;;;;;;19.80;11.48;;;;;;;4.55;67.97;95435.75;5026876;28;20036;-76
2022/02/23 03:45:45;;;;;;;16.80;11.73;;;;;;;4.57;67.96;95439.97;5025661;28;20630;-75
2022/02/23 03:48:11;;;;;;;18.15;11.93;;;;;;;4.48;67.49;95440.81;5026764;28;20094;-77
2022/02/23 03:50:36;;;;;;;16.35;12.38;;;;;;;4.49;68.42;95434.50;5026788;28;20454;-75
2022/02/23 03:53:02;;;;;;;16.90;12.15;;;;;;;4.57;67.91;95437.31;5025501;28;20478;-75
2022/02/23 03:55:28;;;;;;;17.85;11.57;;;;;;;4.62;67.70;95441.34;5024935;28;20470;-75
2022/02/23 03:57:53;;;;;;;16.58;11.90;;;;;;;4.61;67.67;95437.03;5027107;28;20025;-77
2022/02/23 04:00:19;;;;;;;17.33;11.63;;;;;;;4.62;67.08;95439.53;5025203;28;20026;-75
2022/02/23 04:02:44;;;;;;;15.45;11.63;;;;;;;4.60;67.37;95446.81;5008790;28;20076;-75
2022/02/23 04:05:10;;;;;;;19.63;12.25;;;;;;;4.67;67.92;95447.09;5027149;28;20109;-75
2022/02/23 04:07:35;;;;;;;16.50;11.30;;;;;;;4.71;68.00;95459.09;5024920;28;20416;-75
2022/02/23 04:10:01;;;;;;;15.93;11.75;;;;;;;4.76;67.89;95467.50;5025271;28;20477;-74
2022/02/23 04:12:26;;;;;;;15.10;10.32;;;;;;;4.74;67.61;95471.28;5026118;28;20116;-75
2022/02/23 04:14:52;;;;;;;18.27;12.48;;;;;;;4.71;68.29;95477.69;5025316;28;20022;-75
2022/02/23 04:17:17;;;;;;;16.27;11.55;;;;;;;4.69;68.09;95487.66;5026322;28;20071;-75
2022/02/23 04:19:42;;;;;;;15.45;11.93;;;;;;;4.68;67.77;95481.50;5026359;28;20076;-76
2022/02/23 04:22:08;;;;;;;15.35;11.25;;;;;;;4.75;67.55;95486.25;5008928;28;20097;-76
2022/02/23 04:24:33;;;;;;;15.73;11.40;;;;;;;4.75;67.34;95494.22;5024561;28;20029;-76
2022/02/23 04:27:00;;;;;;;13.55;10.68;;;;;;;4.82;67.51;95485.53;5026279;28;20026;-76
2022/02/23 04:29:26;;;;;;;14.00;10.93;;;;;;;4.88;66.85;95496.59;5008177;28;20081;-75
2022/02/23 04:31:51;;;;;;;16.25;11.25;;;;;;;4.77;67.70;95494.91;5026154;28;20025;-74
2022/02/23 04:34:17;;;;;;;15.35;10.98;;;;;;;4.74;67.89;95498.69;5025757;28;20466;-78
2022/02/23 04:36:42;;;;;;;16.58;11.85;;;;;;;4.79;67.13;95498.25;5024550;28;20033;-74
2022/02/23 04:39:08;;;;;;;17.10;12.07;;;;;;;4.65;68.60;95503.03;5025339;28;20079;-75
2022/02/23 04:41:34;;;;;;;15.18;11.40;;;;;;;4.70;67.59;95510.56;5007629;28;20116;-75
2022/02/23 04:43:59;;;;;;;20.15;13.07;;;;;;;4.70;67.87;95502.59;5024735;28;20457;-76
2022/02/23 04:46:25;;;;;;;15.70;11.70;;;;;;;4.68;68.11;95512.53;5025743;28;20037;-76
2022/02/23 04:48:50;;;;;;;16.60;11.25;;;;;;;4.69;67.42;95512.38;5026113;28;20076;-76
2022/02/23 04:51:16;;;;;;;16.23;12.38;;;;;;;4.65;67.74;95512.81;5024169;28;20029;-75
2022/02/23 04:53:42;;;;;;;19.52;12.65;;;;;;;4.65;67.91;95518.13;5026499;28;20412;-75
2022/02/23 04:56:07;;;;;;;16.92;11.93;;;;;;;4.62;68.03;95518.38;5007870;28;20484;-75
2022/02/23 04:58:32;;;;;;;16.50;10.82;;;;;;;4.67;67.78;95521.47;5007824;28;20083;-74
2022/02/23 05:00:58;;;;;;;18.00;11.18;;;;;;;4.62;68.12;95523.69;5025889;28;20026;-77
2022/02/23 05:03:23;;;;;;;16.20;10.73;;;;;;;4.64;67.75;95527.06;5025362;28;20532;-77
2022/02/23 05:05:49;;;;;;;20.73;11.68;;;;;;;4.65;66.69;95526.09;5025407;28;20395;-76
2022/02/23 05:08:19;;;;;;;14.93;10.35;;;;;;;4.65;66.90;95528.75;5025439;28;20030;-77
2022/02/23 05:10:44;;;;;;;16.17;11.07;;;;;;;4.61;67.14;95541.44;5023989;28;20535;-76
2022/02/23 05:13:10;;;;;;;14.32;10.88;;;;;;;4.53;67.63;95543.97;5025475;28;20033;-77
2022/02/23 05:15:35;;;;;;;13.88;10.35;;;;;;;4.52;66.88;95550.25;5025361;28;20478;-76
2022/02/23 05:18:01;;;;;;;17.38;11.80;;;;;;;4.51;67.29;95557.41;5023919;28;20029;-76
2022/02/23 05:20:27;;;;;;;18.15;12.00;;;;;;;4.48;67.32;95562.13;5007531;28;20033;-76
2022/02/23 05:22:52;;;;;;;16.67;11.73;;;;;;;4.48;67.33;95562.13;5025180;28;20064;-77
2022/02/23 05:25:18;;;;;;;14.10;10.68;;;;;;;4.45;67.69;95566.72;5007295;28;20033;-77
2022/02/23 05:27:43;;;;;;;17.58;11.52;;;;;;;4.42;67.09;95577.63;5025345;28;20025;-76
2022/02/23 05:30:10;;;;;;;15.25;10.65;;;;;;;4.33;68.10;95573.97;5025262;28;20049;-77
2022/02/23 05:32:38;;;;;;;15.55;10.90;;;;;;;4.40;67.55;95581.41;5024020;28;20396;-76
2022/02/23 05:35:04;;;;;;;18.40;11.27;;;;;;;4.37;67.11;95582.50;5024961;28;20118;-75
2022/02/23 05:37:30;;;;;;;19.52;11.10;;;;;;;4.35;67.64;95581.81;5025886;28;20030;-76
2022/02/23 05:39:55;;;;;;;15.07;10.73;;;;;;;4.29;67.48;95580.50;5025016;28;20032;-77
2022/02/23 05:42:21;;;;;;;18.15;10.93;;;;;;;4.25;68.22;95581.78;5007122;28;20456;-75
2022/02/23 05:44:46;;;;;;;16.95;11.30;;;;;;;4.27;68.00;95584.28;4990930;28;20022;-75
2022/02/23 05:47:12;;;;;;;15.52;10.45;;;;;;;4.29;67.63;95585.81;5024979;28;20033;-75
2022/02/23 05:49:37;;;;;;;16.30;11.32;;;;;;;4.29;67.22;95591.13;5025150;28;20037;-77
2022/02/23 05:52:03;;;;;;;16.27;10.95;;;;;;;4.33;67.53;95594.38;5024783;28;20025;-76
2022/02/23 05:54:30;;;;;;;17.15;11.15;;;;;;;4.28;68.13;95602.75;5029222;28;20481;-76
2022/02/23 05:56:56;;;;;;;18.55;12.00;;;;;;;4.29;67.41;95604.41;5028871;28;20039;-76
2022/02/23 05:59:21;;;;;;;17.17;11.48;;;;;;;4.30;66.97;95610.56;5029297;28;20030;-76
2022/02/23 06:01:47;;;;;;;16.67;11.23;;;;;;;4.29;67.91;95615.03;5027528;28;20040;-76
2022/02/23 06:04:12;;;;;;;17.05;10.85;;;;;;;4.27;67.29;95626.78;5028993;28;20025;-76
2022/02/23 06:06:37;;;;;;;16.27;10.73;;;;;;;4.25;68.48;95629.56;5029056;28;20032;-78
2022/02/23 06:09:03;;;;;;;17.92;10.20;;;;;;;4.16;68.00;95630.38;5028742;28;20435;-75
2022/02/23 06:11:28;;;;;;;15.23;10.27;;;;;;;4.27;68.13;95640.88;5027245;28;20510;-75
2022/02/23 06:13:54;;;;;;;16.48;10.57;;;;;;;4.32;68.19;95638.66;5028217;28;20530;-77
2022/02/23 06:16:20;;;;;;;14.38;10.60;;;;;;;4.36;67.13;95641.91;5027668;28;20113;-75
2022/02/23 06:18:45;;;;;;;15.23;10.32;;;;;;;4.38;67.82;95647.94;5028624;28;20021;-76
2022/02/23 06:21:11;;;;;;;15.90;9.82;;;;;;;4.35;67.45;95644.69;5026850;28;20026;-76
2022/02/23 06:23:36;;;;;;;14.52;9.73;;;;;;;4.43;66.45;95656.31;5028610;28;20204;-75
2022/02/23 06:26:02;;;;;;;14.27;9.95;;;;;;;4.42;66.97;95656.44;5028097;28;20040;-77
2022/02/23 06:28:27;;;;;;;13.77;8.88;;;;;;;4.48;66.89;95665.72;5028097;28;20022;-75
2022/02/23 06:30:53;;;;;;;14.27;9.70;;;;;;;4.45;66.89;95672.13;5028168;28;20045;-75
2022/02/23 06:33:22;;;;;;;13.23;10.07;;;;;;;4.50;66.61;95672.56;5028357;28;20144;-75
2022/02/23 06:35:49;;;;;;;13.85;9.40;;;;;;;4.53;66.18;95674.97;5026917;28;20512;-76
2022/02/23 06:38:15;;;;;;;12.15;9.30;;;;;;;4.51;66.08;95676.94;5028077;28;20025;-76
2022/02/23 06:40:40;;;;;;;12.75;9.55;;;;;;;4.48;66.71;95674.53;5027249;28;20025;-75
2022/02/23 06:43:06;;;;;;;16.42;9.35;;;;;;;4.54;65.91;95675.81;5009750;28;20407;-75
2022/02/23 06:45:31;;;;;;;13.20;9.05;;;;;;;4.49;65.51;95678.88;5010426;28;20033;-75
2022/02/23 06:47:56;;;;;;;14.25;9.07;;;;;;;4.51;66.23;95676.06;5009954;28;20034;-76
2022/02/23 06:50:22;;;;;;;13.60;8.45;;;;;;;4.52;66.39;95681.25;5026815;28;20242;-76
2022/02/23 06:52:47;;;;;;;13.85;8.50;;;;;;;4.56;65.48;95679.19;5026410;28;20110;-75
2022/02/23 06:55:15;;;;;;;12.63;9.07;;;;;;;4.42;65.95;95690.97;5010027;28;20033;-76
2022/02/23 06:57:41;;;;;;;12.75;9.57;;;;;;;4.41;66.49;95694.63;5027676;28;20527;-75
2022/02/23 07:00:08;;;;;;;12.73;9.35;;;;;;;4.49;66.26;95700.13;5025895;28;20030;-77
2022/02/23 07:02:34;;;;;;;14.00;10.20;;;;;;;4.47;65.87;95691.44;5026134;28;20053;-75
2022/02/23 07:04:59;;;;;;;15.50;8.98;;;;;;;4.58;65.57;95699.31;5026245;28;20033;-75
2022/02/23 07:07:25;;;;;;;17.27;11.73;;;;;;;4.54;66.31;95697.91;5027348;28;20014;-74
2022/02/23 07:09:50;;;;;;;12.93;9.27;;;;;;;4.66;66.14;95698.66;5009746;28;20030;-76
2022/02/23 07:12:16;;;;;;;14.48;9.55;;;;;;;4.57;66.79;95696.78;5026147;28;20028;-76
2022/02/23 07:14:41;;;;;;;12.07;9.23;;;;;;;4.49;67.26;95694.81;5026046;28;20056;-77
2022/02/23 07:17:06;;;;;;;14.93;9.45;;;;;;;4.61;66.27;95692.06;5027347;28;20026;-76
2022/02/23 07:19:33;;;;;;;13.55;9.18;;;;;;;4.69;65.67;95700.22;5026278;28;20034;-75
2022/02/23 07:21:58;;;;;;;12.63;9.50;;;;;;;4.77;65.72;95696.88;5027765;28;20048;-76
2022/02/23 07:24:24;;;;;;;13.70;9.20;;;;;;;4.73;65.35;95690.97;5027430;28;20420;-76
2022/02/23 07:26:49;;;;;;;12.77;9.02;;;;;;;4.79;64.84;95690.44;5025958;28;20029;-75
2022/02/23 07:29:15;;;;;;;13.63;9.25;;;;;;;4.93;65.67;95689.22;5026919;28;20042;-77
2022/02/23 07:31:42;;;;;;;10.18;8.25;;;;;;;5.09;64.73;95695.00;5026988;28;20029;-75
2022/02/23 07:34:07;;;;;;;13.32;8.90;;;;;;;5.14;64.40;95693.59;5026351;28;20026;-76
2022/02/23 07:36:33;;;;;;;12.13;8.88;;;;;;;5.19;63.91;95695.88;5025977;28;20044;-76
2022/02/23 07:38:58;;;;;;;12.80;8.50;;;;;;;5.26;63.73;95702.31;5027078;28;20478;-76
2022/02/23 07:41:25;;;;;;;12.65;8.60;;;;;;;5.39;64.08;95706.53;5027008;28;20087;-76
2022/02/23 07:43:51;;;;;;;12.65;8.88;;;;;;;5.50;63.18;95709.06;5009256;28;20024;-76
2022/02/23 07:46:16;;;;;;;12.98;9.00;;;;;;;5.69;63.47;95708.25;5026936;28;20025;-75
2022/02/23 07:48:42;;;;;;;12.05;8.75;;;;;;;6.02;61.93;95701.78;5025483;28;20061;-75
2022/02/23 07:51:08;;;;;;;14.07;8.82;;;;;;;6.06;61.84;95712.03;5025856;28;20033;-77
2022/02/23 07:53:33;;;;;;;13.05;9.88;;;;;;;6.13;61.46;95711.47;5026523;28;20100;-77
2022/02/23 07:55:59;;;;;;;12.05;8.73;;;;;;;6.09;61.42;95718.06;5026942;28;20030;-76
2022/02/23 07:58:24;;;;;;;12.48;9.15;;;;;;;6.05;61.39;95721.03;5025511;28;20033;-76
2022/02/23 08:00:50;;;;;;;10.63;8.35;;;;;;;6.02;61.33;95715.94;5026422;28;20025;-75
2022/02/23 08:03:16;;;;;;;16.75;9.25;;;;;;;5.98;60.59;95727.03;5008913;28;20025;-76
2022/02/23 08:05:42;;;;;;;17.83;9.02;;;;;;;5.92;61.09;95718.63;5024760;28;20083;-75
2022/02/23 08:08:08;;;;;;;13.20;8.70;;;;;;;5.88;61.36;95722.56;5008958;28;20068;-77
2022/02/23 08:10:34;;;;;;;13.68;8.85;;;;;;;5.82;61.17;95718.63;5025871;28;20498;-77
2022/02/23 08:12:59;;;;;;;12.52;8.68;;;;;;;5.79;60.94;95716.22;5025275;28;20087;-76
2022/02/23 08:20:54;;;;;;;13.57;9.55;;;;;;;5.81;61.00;95716.09;5025205;28;20041;-75
2022/02/23 08:23:19;;;;;;;16.48;9.27;;;;;;;5.86;61.71;95713.00;5025999;28;20029;-76
2022/02/23 08:25:45;;;;;;;15.43;9.60;;;;;;;5.90;61.07;95720.56;5026078;28;20026;-75
2022/02/23 08:28:10;;;;;;;11.90;8.95;;;;;;;5.96;62.04;95721.84;5026321;28;20105;-75
2022/02/23 08:30:36;;;;;;;14.15;8.80;;;;;;;6.06;62.21;95716.53;5025768;28;20435;-77
2022/02/23 08:33:03;;;;;;;14.60;8.50;;;;;;;6.13;61.10;95719.47;5026192;28;20041;-76
2022/02/23 08:35:32;;;;;;;13.50;9.27;;;;;;;6.28;59.74;95718.06;5025689;28;20029;-77
2022/02/23 08:37:57;;;;;;;12.75;8.43;;;;;;;6.42;59.98;95710.56;5024936;28;20021;-75
2022/02/23 08:40:23;;;;;;;11.68;8.40;;;;;;;6.52;59.19;95698.06;5025573;28;20030;-77
2022/02/23 08:42:48;;;;;;;11.75;8.88;;;;;;;6.64;59.31;95705.91;5024482;28;20037;-75
2022/02/23 08:45:14;;;;;;;10.75;7.72;;;;;;;6.73;58.60;95705.03;5025875;28;20079;-75
2022/02/23 08:47:39;;;;;;;14.27;8.63;;;;;;;6.83;58.79;95712.97;5025866;28;20032;-75
2022/02/23 08:50:05;;;;;;;13.63;8.55;;;;;;;6.93;58.39;95704.94;5025793;28;20022;-77
2022/02/23 08:52:31;;;;;;;12.88;8.50;;;;;;;7.12;57.76;95701.34;5007695;28;20025;-76
2022/02/23 08:54:56;;;;;;;10.93;8.70;;;;;;;7.18;57.28;95702.56;5024408;28;20531;-75
2022/02/23 08:57:22;;;;;;;28.15;9.02;;;;;;;7.21;57.29;95706.75;5025423;28;20522;-75
2022/02/23 08:59:47;;;;;;;11.82;7.95;;;;;;;7.31;56.82;95712.88;5025611;28;20022;-77
2022/02/23 09:02:12;;;;;;;12.02;7.80;;;;;;;7.32;56.74;95717.22;5025210;28;20025;-77
2022/02/23 09:04:38;;;;;;;11.35;8.48;;;;;;;7.36;57.18;95718.59;5025693;28;20076;-75
2022/02/23 09:07:04;;;;;;;11.57;8.35;;;;;;;7.38;56.66;95715.78;5027564;28;20021;-76
2022/02/23 09:09:30;;;;;;;11.65;8.48;;;;;;;7.41;56.71;95710.16;5024261;28;20635;-78
2022/02/23 09:11:56;;;;;;;11.95;8.23;;;;;;;7.41;55.84;95713.66;5007790;28;20029;-75
2022/02/23 09:14:21;;;;;;;9.82;7.72;;;;;;;7.38;55.31;95713.94;5025318;28;20021;-76
2022/02/23 09:16:47;;;;;;;10.90;7.43;;;;;;;7.35;55.47;95721.44;5025495;28;20204;-76
2022/02/23 09:19:12;;;;;;;14.52;7.95;;;;;;;7.23;56.14;95721.63;5025309;28;20025;-77
2022/02/23 09:21:38;;;;;;;9.77;7.13;;;;;;;7.25;55.71;95717.00;5007613;28;20034;-77
2022/02/23 09:24:04;;;;;;;12.10;8.23;;;;;;;7.28;56.11;95729.19;5025222;28;20025;-76
2022/02/23 09:26:30;;;;;;;10.20;7.75;;;;;;;7.30;56.08;95725.38;5024998;28;20507;-75
2022/02/23 09:28:56;;;;;;;10.23;7.43;;;;;;;7.23;56.18;95726.13;5023629;28;20045;-76
2022/02/23 09:31:21;;;;;;;12.93;8.20;;;;;;;7.17;56.31;95733.72;5023599;28;20062;-75
2022/02/23 09:33:51;;;;;;;13.70;8.73;;;;;;;7.21;56.54;95733.41;5025106;28;20069;-76
2022/02/23 09:36:16;;;;;;;10.05;7.53;;;;;;;7.26;55.71;95742.69;5024871;28;20029;-75
2022/02/23 09:38:43;;;;;;;10.23;7.45;;;;;;;7.19;54.96;95736.25;5024842;28;20022;-76
2022/02/23 09:41:10;;;;;;;9.48;7.32;;;;;;;7.15;55.04;95735.72;5023531;28;20036;-77
2022/02/23 09:43:36;;;;;;;12.45;7.72;;;;;;;7.21;55.29;95728.94;5007586;28;20060;-77
2022/02/23 09:46:03;;;;;;;10.20;7.18;;;;;;;7.19;55.83;95730.91;5007012;28;20539;-77
2022/02/23 09:48:29;;;;;;;9.77;7.10;;;;;;;7.29;55.24;95730.84;5024987;28;20026;-75
2022/02/23 09:50:55;;;;;;;9.05;6.78;;;;;;;7.07;55.35;95732.94;5007274;28;20026;-75
2022/02/23 09:53:21;;;;;;;9.18;6.38;;;;;;;7.21;55.62;95733.41;5006991;28;20052;-76
2022/02/23 09:55:47;;;;;;;8.77;6.40;;;;;;;7.26;55.08;95720.47;5023599;28;20057;-76
2022/02/23 09:58:13;;;;;;;9.98;7.40;;;;;;;7.29;55.22;95723.69;5023311;28;20361;-77
2022/02/23 10:00:38;;;;;;;9.93;6.68;;;;;;;7.42;54.53;95730.50;5023612;28;20022;-77
2022/02/23 10:03:05;;;;;;;8.13;6.97;;;;;;;7.43;55.39;95732.19;5023233;28;20037;-77
2022/02/23 10:05:40;;;;;;;13.13;7.22;;;;;;;7.48;55.06;95734.41;5023745;28;20029;-76
2022/02/23 10:08:07;;;;;;;8.30;6.78;;;;;;;7.41;54.02;95727.00;5023544;28;20022;-76
2022/02/23 10:10:35;;;;;;;10.05;6.90;;;;;;;7.46;53.46;95728.38;5006823;28;20017;-76
2022/02/23 10:13:03;;;;;;;10.60;6.95;;;;;;;7.54;53.65;95728.47;5006952;28;20029;-75
2022/02/23 10:15:32;;;;;;;9.98;6.47;;;;;;;7.56;53.64;95725.66;5007374;28;20040;-76
2022/02/23 10:18:20;;;;;;;9.52;6.90;;;;;;;7.53;54.12;95730.28;5007419;28;20504;-76
2022/02/23 10:20:46;;;;;;;9.27;6.22;;;;;;;7.57;53.17;95730.00;5023505;28;20061;-77
2022/02/23 10:23:19;;;;;;;11.43;6.93;;;;;;;7.60;53.18;95717.19;5006981;28;20047;-77
2022/02/23 10:26:06;;;;;;;9.02;6.25;;;;;;;7.61;52.65;95715.38;5024883;28;20459;-77
2022/02/23 10:28:33;;;;;;;9.07;6.50;;;;;;;7.60;52.94;95719.84;5023511;28;20090;-77
2022/02/23 10:31:00;;;;;;;9.00;5.88;;;;;;;7.65;52.23;95724.75;5023109;28;20526;-76
2022/02/23 10:33:32;;;;;;;9.25;6.15;;;;;;;7.75;51.80;95714.84;5006771;28;20030;-77
2022/02/23 10:36:05;;;;;;;10.35;6.07;;;;;;;7.88;51.69;95708.28;5023074;28;20029;-78
2022/02/23 10:38:33;;;;;;;9.40;6.45;;;;;;;7.86;52.84;95710.25;5025698;28;20029;-77
2022/02/23 10:40:59;;;;;;;12.38;6.80;;;;;;;8.07;52.01;95717.09;5027967;28;20036;-76
2022/02/23 10:43:34;;;;;;;8.82;5.50;;;;;;;8.18;51.07;95708.84;5028364;28;20091;-76
2022/02/23 10:46:09;;;;;;;9.30;6.18;;;;;;;8.26;50.47;95703.56;5026589;28;20506;-77
2022/02/23 10:48:36;;;;;;;6.93;5.13;;;;;;;8.49;50.53;95708.41;5026940;28;20025;-76
2022/02/23 10:51:02;;;;;;;10.50;5.82;;;;;;;8.49;49.07;95703.06;5026407;28;20029;-77
2022/02/23 10:53:29;;;;;;;8.23;5.95;;;;;;;8.55;50.12;95698.09;5028061;28;20037;-77
2022/02/23 10:55:54;;;;;;;8.57;6.10;;;;;;;8.52;50.41;95694.72;5010683;28;20029;-75
2022/02/23 10:58:20;;;;;;;10.98;6.05;;;;;;;8.62;49.70;95705.34;5009541;28;20030;-77
2022/02/23 11:00:50;;;;;;;8.88;6.30;;;;;;;8.64;50.38;95699.84;5026568;28;20036;-76
2022/02/23 11:03:18;;;;;;;8.38;6.10;;;;;;;8.67;49.13;95694.19;5027373;28;20029;-76
2022/02/23 11:05:46;;;;;;;13.27;6.50;;;;;;;8.72;49.87;95699.84;5026717;28;20029;-76
2022/02/23 11:08:14;;;;;;;9.40;5.50;;;;;;;8.74;49.80;95692.53;5009801;28;20489;-77
2022/02/23 11:10:42;;;;;;;9.95;6.07;;;;;;;8.83;49.09;95684.56;5010405;28;20064;-77
2022/02/23 11:13:07;;;;;;;8.50;5.85;;;;;;;8.84;49.12;95691.56;5011404;28;20037;-77
2022/02/23 11:15:32;;;;;;;7.40;5.60;;;;;;;8.74;49.98;95697.88;5027424;28;20025;-76
2022/02/23 11:17:58;;;;;;;7.63;5.43;;;;;;;8.70;50.36;95691.19;4993681;28;20037;-77
2022/02/23 11:20:27;;;;;;;9.30;6.20;;;;;;;8.72;49.73;95686.50;5009468;28;20025;-77
2022/02/23 11:22:56;;;;;;;8.23;5.57;;;;;;;8.71;49.38;95690.16;5027780;28;20035;-76
2022/02/23 11:25:23;;;;;;;9.05;5.97;;;;;;;8.55;49.46;95688.25;5009650;28;20075;-77
2022/02/23 11:27:50;;;;;;;8.95;6.18;;;;;;;8.41;50.32;95697.66;5026289;28;20025;-76